createdAt,value
2023-04-27T00:00:11.922Z,5.00
2023-04-27T00:02:40.268Z,6.07
2023-04-27T00:05:11.085Z,4.55
2023-04-27T00:07:39.288Z,4.85
2023-04-27T00:10:08.513Z,4.57
2023-04-27T00:12:36.612Z,4.63
2023-04-27T00:15:05.062Z,5.00
2023-04-27T00:17:34.595Z,5.88
2023-04-27T00:20:05.140Z,5.30
2023-04-27T00:22:33.273Z,5.07
2023-04-27T00:25:01.349Z,4.80
2023-04-27T00:27:29.429Z,5.03
2023-04-27T00:29:57.534Z,4.60
2023-04-27T00:32:25.665Z,4.38
2023-04-27T00:34:55.115Z,5.22
2023-04-27T00:37:23.254Z,4.45
2023-04-27T00:39:51.337Z,3.97
2023-04-27T00:42:19.887Z,4.70
2023-04-27T00:44:47.958Z,4.53
2023-04-27T00:47:16.611Z,4.63
2023-04-27T00:49:44.682Z,4.20
2023-04-27T00:52:14.152Z,4.30
2023-04-27T00:54:42.191Z,4.30
2023-04-27T00:57:10.302Z,4.57
2023-04-27T00:59:38.382Z,4.57
2023-04-27T01:02:06.643Z,4.97
2023-04-27T01:04:34.822Z,4.35
2023-04-27T01:07:03.714Z,4.47
2023-04-27T01:09:33.116Z,5.05
2023-04-27T01:12:01.383Z,3.95
2023-04-27T01:14:29.470Z,4.85
2023-04-27T01:16:57.534Z,4.78
2023-04-27T01:19:25.759Z,4.97
2023-04-27T01:21:53.847Z,5.57
2023-04-27T01:24:23.356Z,4.80
2023-04-27T01:26:53.333Z,4.93
2023-04-27T01:29:21.474Z,4.97
2023-04-27T01:31:49.537Z,4.82
2023-04-27T01:34:17.566Z,4.82
2023-04-27T01:36:45.610Z,4.97
2023-04-27T01:39:13.965Z,4.72
2023-04-27T01:41:43.644Z,4.85
2023-04-27T01:44:12.051Z,4.97
2023-04-27T01:46:40.346Z,5.13
2023-04-27T01:49:08.441Z,5.15
2023-04-27T01:51:36.563Z,5.07
2023-04-27T01:54:04.764Z,4.90
2023-04-27T01:56:32.832Z,4.82
2023-04-27T01:59:02.373Z,4.85
2023-04-27T02:01:31.497Z,4.45
2023-04-27T02:03:59.758Z,4.78
2023-04-27T02:06:28.150Z,4.40
2023-04-27T02:08:56.213Z,4.90
2023-04-27T02:11:24.295Z,5.43
2023-04-27T02:13:52.295Z,4.85
2023-04-27T02:16:21.865Z,5.10
2023-04-27T02:18:50.238Z,5.80
2023-04-27T02:21:18.320Z,5.30
2023-04-27T02:23:46.364Z,4.78
2023-04-27T02:26:18.820Z,5.35
2023-04-27T02:28:47.604Z,5.07
2023-04-27T02:31:16.275Z,4.65
2023-04-27T02:33:45.713Z,4.72
2023-04-27T02:36:13.760Z,4.72
2023-04-27T02:38:41.838Z,4.95
2023-04-27T02:41:09.892Z,4.68
2023-04-27T02:43:37.952Z,4.53
2023-04-27T02:46:06.116Z,4.57
2023-04-27T02:48:34.207Z,4.60
2023-04-27T02:51:06.097Z,4.25
2023-04-27T02:53:34.217Z,5.00
2023-04-27T02:56:02.280Z,4.55
2023-04-27T02:58:31.030Z,4.50
2023-04-27T03:00:59.194Z,4.20
2023-04-27T03:03:27.619Z,4.53
2023-04-27T03:05:56.020Z,3.85
2023-04-27T03:08:25.475Z,5.40
2023-04-27T03:10:53.518Z,4.75
2023-04-27T03:13:22.587Z,4.53
2023-04-27T03:15:50.856Z,4.30
2023-04-27T03:18:18.960Z,4.20
2023-04-27T03:20:47.043Z,5.07
2023-04-27T03:23:15.170Z,4.72
2023-04-27T03:25:44.594Z,4.60
2023-04-27T03:28:12.719Z,4.05
2023-04-27T03:30:41.437Z,4.95
2023-04-27T03:33:09.594Z,4.70
2023-04-27T03:35:37.711Z,4.28
2023-04-27T03:38:05.826Z,3.90
2023-04-27T03:40:33.919Z,4.32
2023-04-27T03:43:03.407Z,3.75
2023-04-27T03:45:31.623Z,4.40
2023-04-27T03:47:59.835Z,4.22
2023-04-27T03:50:29.966Z,3.58
2023-04-27T03:52:58.347Z,4.72
2023-04-27T03:55:27.007Z,4.53
2023-04-27T03:57:55.133Z,3.85
2023-04-27T04:00:24.744Z,4.32
2023-04-27T04:02:53.421Z,4.57
2023-04-27T04:05:21.809Z,4.15
2023-04-27T04:07:50.148Z,4.65
2023-04-27T04:10:18.346Z,4.43
2023-04-27T04:12:46.548Z,4.15
2023-04-27T04:15:14.727Z,4.10
2023-04-27T04:17:44.822Z,4.03
2023-04-27T04:20:13.490Z,4.30
2023-04-27T04:22:41.637Z,3.95
2023-04-27T04:25:10.021Z,4.07
2023-04-27T04:27:38.129Z,3.78
2023-04-27T04:30:07.264Z,4.32
2023-04-27T04:32:37.954Z,4.40
2023-04-27T04:35:08.010Z,4.00
2023-04-27T04:37:36.706Z,3.63
2023-04-27T04:40:10.762Z,4.25
2023-04-27T04:42:39.070Z,3.72
2023-04-27T04:45:08.332Z,4.05
2023-04-27T04:47:36.805Z,4.28
2023-04-27T04:50:05.532Z,4.57
2023-04-27T04:52:35.367Z,4.63
2023-04-27T04:55:03.613Z,4.63
2023-04-27T04:57:32.069Z,4.38
2023-04-27T05:00:00.294Z,4.28
2023-04-27T05:02:28.597Z,3.78
2023-04-27T05:04:57.740Z,4.53
2023-04-27T05:07:26.152Z,4.47
2023-04-27T05:09:55.928Z,3.97
2023-04-27T05:12:24.051Z,4.15
2023-04-27T05:14:52.689Z,4.85
2023-04-27T05:17:20.984Z,3.70
2023-04-27T05:19:49.341Z,4.25
2023-04-27T05:22:17.393Z,4.30
2023-04-27T05:24:45.508Z,4.03
2023-04-27T05:27:15.890Z,4.30
2023-04-27T05:29:44.509Z,4.15
2023-04-27T05:32:12.680Z,4.78
2023-04-27T05:34:41.234Z,4.30
2023-04-27T05:37:09.506Z,4.55
2023-04-27T05:39:38.125Z,4.50
2023-04-27T05:42:06.704Z,4.72
2023-04-27T05:44:36.367Z,4.30
2023-04-27T05:47:04.540Z,5.05
2023-04-27T05:49:32.761Z,5.20
2023-04-27T05:52:01.316Z,4.35
2023-04-27T05:54:29.448Z,4.00
2023-04-27T05:56:57.580Z,5.15
2023-04-27T05:59:25.724Z,5.22
2023-04-27T06:01:55.330Z,4.53
2023-04-27T06:04:23.530Z,4.85
2023-04-27T06:06:51.693Z,5.03
2023-04-27T06:09:19.843Z,4.10
2023-04-27T06:11:47.962Z,4.45
2023-04-27T06:14:16.403Z,4.70
2023-04-27T06:16:44.558Z,4.90
2023-04-27T06:19:14.139Z,4.97
2023-04-27T06:21:42.597Z,5.05
2023-04-27T06:24:10.741Z,4.75
2023-04-27T06:26:38.828Z,6.28
2023-04-27T06:29:07.951Z,4.30
2023-04-27T06:31:36.211Z,5.13
2023-04-27T06:34:04.736Z,5.15
2023-04-27T06:36:34.237Z,4.80
2023-04-27T06:39:02.350Z,5.68
2023-04-27T06:41:30.606Z,4.80
2023-04-27T06:43:59.303Z,6.28
2023-04-27T06:46:28.122Z,5.18
2023-04-27T06:48:56.373Z,4.97
2023-04-27T06:51:24.606Z,5.10
2023-04-27T06:53:54.262Z,4.68
2023-04-27T06:56:22.609Z,5.30
2023-04-27T06:58:50.855Z,4.53
2023-04-27T07:01:19.076Z,4.97
2023-04-27T07:03:47.676Z,4.43
2023-04-27T07:06:16.066Z,5.47
2023-04-27T07:08:44.799Z,5.80
2023-04-27T07:11:14.637Z,7.32
2023-04-27T07:13:42.743Z,5.03
2023-04-27T07:16:11.001Z,5.13
2023-04-27T07:18:39.272Z,5.00
2023-04-27T07:21:08.131Z,5.18
2023-04-27T07:23:36.316Z,5.63
2023-04-27T07:26:04.480Z,5.70
2023-04-27T07:28:35.408Z,5.55
2023-04-27T07:31:05.706Z,5.50
2023-04-27T07:33:33.883Z,4.93
2023-04-27T07:36:03.217Z,5.20
2023-04-27T07:38:31.433Z,5.15
2023-04-27T07:40:59.876Z,6.22
2023-04-27T07:43:28.072Z,5.43
2023-04-27T07:45:58.634Z,4.60
2023-04-27T07:48:27.057Z,5.03
2023-04-27T07:50:55.235Z,5.35
2023-04-27T07:53:23.369Z,5.90
2023-04-27T07:55:51.632Z,5.45
2023-04-27T07:58:20.280Z,6.78
2023-04-27T08:00:48.572Z,5.85
2023-04-27T08:03:18.456Z,6.10
2023-04-27T08:05:47.365Z,5.25
2023-04-27T08:08:15.996Z,5.32
2023-04-27T08:10:44.329Z,5.40
2023-04-27T08:13:12.493Z,6.40
2023-04-27T08:15:40.672Z,5.07
2023-04-27T08:18:08.856Z,5.53
2023-04-27T08:20:38.641Z,5.65
2023-04-27T08:23:06.919Z,5.22
2023-04-27T08:25:35.104Z,5.10
2023-04-27T08:28:03.245Z,4.85
2023-04-27T08:30:31.557Z,5.70
2023-04-27T08:32:59.947Z,5.47
2023-04-27T08:35:28.271Z,5.45
2023-04-27T08:37:57.761Z,5.57
2023-04-27T08:40:26.222Z,6.05
2023-04-27T08:42:56.238Z,5.68
2023-04-27T08:45:24.553Z,5.05
2023-04-27T08:47:52.917Z,5.55
2023-04-27T08:50:21.537Z,5.13
2023-04-27T08:52:49.842Z,5.55
2023-04-27T08:55:19.549Z,5.40
2023-04-27T08:57:57.729Z,4.75
2023-04-27T09:00:26.908Z,5.55
2023-04-27T09:02:55.339Z,5.47
2023-04-27T09:05:24.197Z,5.90
2023-04-27T09:08:02.297Z,5.68
2023-04-27T09:10:32.018Z,5.22
2023-04-27T09:13:01.239Z,5.85
2023-04-27T09:15:30.093Z,5.55
2023-04-27T09:17:58.465Z,5.43
2023-04-27T09:20:27.624Z,4.97
2023-04-27T09:22:58.483Z,5.13
2023-04-27T09:25:27.876Z,5.75
2023-04-27T09:27:58.303Z,4.68
2023-04-27T09:30:26.781Z,5.50
2023-04-27T09:32:56.146Z,5.30
2023-04-27T09:35:25.305Z,5.28
2023-04-27T09:37:54.048Z,5.05
2023-04-27T09:40:31.875Z,4.97
2023-04-27T09:43:07.269Z,10.75
2023-04-27T09:45:37.051Z,5.32
2023-04-27T09:48:07.710Z,5.43
2023-04-27T09:50:38.076Z,6.32
2023-04-27T09:53:08.339Z,5.00
2023-04-27T09:55:39.557Z,5.13
2023-04-27T09:58:34.260Z,4.80
2023-04-27T10:01:07.467Z,5.25
2023-04-27T10:03:47.380Z,4.80
2023-04-27T10:06:55.902Z,5.05
2023-04-27T10:09:25.422Z,4.35
2023-04-27T10:11:54.080Z,4.38
2023-04-27T10:14:24.232Z,4.07
2023-04-27T10:16:53.435Z,4.20
2023-04-27T10:19:21.896Z,4.28
2023-04-27T10:21:57.942Z,4.40
2023-04-27T10:24:38.692Z,3.70
2023-04-27T10:27:08.080Z,5.07
2023-04-27T10:29:42.084Z,3.17
2023-04-27T10:32:12.354Z,2.85
2023-04-27T10:34:42.689Z,3.30
2023-04-27T10:37:11.962Z,2.70
2023-04-27T10:39:48.086Z,3.15
2023-04-27T10:42:28.411Z,4.10
2023-04-27T10:44:59.490Z,3.55
2023-04-27T10:47:37.718Z,3.97
2023-04-27T10:50:06.887Z,4.10
2023-04-27T10:52:35.175Z,3.65
2023-04-27T10:55:14.536Z,4.00
2023-04-27T10:57:48.289Z,3.50
2023-04-27T11:00:23.962Z,3.22
2023-04-27T11:02:52.677Z,2.90
2023-04-27T11:05:21.192Z,2.95
2023-04-27T11:07:49.484Z,2.83
2023-04-27T11:10:18.429Z,3.63
2023-04-27T11:12:46.806Z,3.03
2023-04-27T11:15:14.978Z,2.92
2023-04-27T11:17:44.723Z,4.22
2023-04-27T11:20:12.844Z,3.53
2023-04-27T11:22:49.708Z,3.63
2023-04-27T11:25:18.273Z,3.70
2023-04-27T11:27:46.437Z,3.70
2023-04-27T11:30:21.552Z,3.97
2023-04-27T11:32:51.288Z,4.00
2023-04-27T11:35:19.457Z,4.30
2023-04-27T11:37:58.266Z,4.30
2023-04-27T11:40:27.328Z,3.53
2023-04-27T11:42:59.324Z,3.53
2023-04-27T11:45:27.721Z,4.78
2023-04-27T11:47:59.461Z,4.53
2023-04-27T11:50:27.763Z,4.65
2023-04-27T11:52:56.096Z,3.78
2023-04-27T11:55:24.968Z,4.53
2023-04-27T11:57:58.266Z,3.80
2023-04-27T12:00:26.526Z,4.03
2023-04-27T12:02:56.106Z,3.25
2023-04-27T12:05:24.494Z,3.63
2023-04-27T12:07:53.629Z,3.30
2023-04-27T12:10:21.843Z,3.25
2023-04-27T12:12:49.972Z,3.10
2023-04-27T12:15:18.257Z,4.55
2023-04-27T12:17:46.425Z,3.92
2023-04-27T12:20:16.261Z,3.42
2023-04-27T12:22:44.381Z,2.92
2023-04-27T12:25:12.587Z,2.55
2023-04-27T12:27:41.073Z,2.90
2023-04-27T12:30:09.993Z,2.67
2023-04-27T12:32:38.146Z,3.13
2023-04-27T12:35:06.894Z,3.65
2023-04-27T12:37:36.482Z,2.78
2023-04-27T12:40:06.532Z,2.70
2023-04-27T12:42:34.724Z,2.83
2023-04-27T12:45:04.678Z,3.40
2023-04-27T12:50:06.900Z,3.53
2023-04-27T12:52:36.609Z,2.90
2023-04-27T12:55:06.035Z,2.95
2023-04-27T12:57:34.223Z,2.97
2023-04-27T13:00:02.519Z,2.78
2023-04-27T13:02:31.375Z,2.70
2023-04-27T13:04:59.714Z,2.70
2023-04-27T13:07:27.966Z,2.38
2023-04-27T13:09:57.526Z,3.13
2023-04-27T13:12:26.266Z,2.85
2023-04-27T13:14:54.454Z,9.52
2023-04-27T13:17:22.609Z,2.70
2023-04-27T13:19:50.711Z,2.58
2023-04-27T13:22:18.846Z,2.50
2023-04-27T13:24:47.095Z,3.58
2023-04-27T13:27:17.222Z,2.42
2023-04-27T13:29:45.537Z,2.50
2023-04-27T13:32:13.660Z,2.30
2023-04-27T13:34:41.956Z,2.33
2023-04-27T13:37:10.086Z,1.98
2023-04-27T13:39:38.692Z,2.20
2023-04-27T13:42:07.126Z,2.67
2023-04-27T13:44:36.590Z,2.88
2023-04-27T13:47:08.069Z,2.30
2023-04-27T13:49:36.470Z,2.75
2023-04-27T13:52:04.708Z,3.05
2023-04-27T13:54:32.872Z,3.03
2023-04-27T13:57:00.988Z,2.90
2023-04-27T13:59:29.077Z,2.85
2023-04-27T14:01:58.581Z,3.00
2023-04-27T14:04:26.813Z,3.20
2023-04-27T14:06:54.970Z,3.00
2023-04-27T14:09:24.272Z,2.22
2023-04-27T14:11:56.772Z,2.50
2023-04-27T14:14:25.451Z,2.50
2023-04-27T14:16:54.036Z,2.75
2023-04-27T14:19:23.515Z,2.60
2023-04-27T14:21:51.613Z,3.25
2023-04-27T14:24:19.695Z,2.30
2023-04-27T14:26:48.890Z,3.05
2023-04-27T14:29:17.146Z,3.15
2023-04-27T14:31:45.780Z,3.00
2023-04-27T14:34:14.703Z,2.75
2023-04-27T14:36:45.766Z,2.53
2023-04-27T14:39:33.878Z,2.60
2023-04-27T14:42:02.143Z,3.00
2023-04-27T14:44:32.152Z,3.30
2023-04-27T14:47:00.519Z,2.92
2023-04-27T14:49:28.766Z,2.70
2023-04-27T14:51:58.777Z,2.30
2023-04-27T14:54:26.930Z,2.50
2023-04-27T14:56:56.579Z,2.88
2023-04-27T14:59:25.847Z,2.60
2023-04-27T15:01:54.076Z,3.00
2023-04-27T15:04:22.378Z,3.40
2023-04-27T15:06:50.776Z,2.65
2023-04-27T15:09:20.331Z,2.88
2023-04-27T15:11:48.389Z,2.22
2023-04-27T15:14:16.682Z,2.63
2023-04-27T15:16:44.802Z,2.72
2023-04-27T15:19:13.466Z,2.90
2023-04-27T15:21:41.914Z,2.92
2023-04-27T15:24:10.955Z,2.75
2023-04-27T15:26:41.022Z,2.95
2023-04-27T15:29:09.408Z,2.80
2023-04-27T15:31:37.756Z,3.10
2023-04-27T15:34:05.973Z,2.90
2023-04-27T15:36:34.652Z,2.22
2023-04-27T15:39:02.749Z,2.70
2023-04-27T15:41:30.880Z,2.10
2023-04-27T15:44:00.352Z,2.47
2023-04-27T15:46:28.479Z,2.45
2023-04-27T15:48:56.879Z,3.03
2023-04-27T15:51:25.059Z,2.50
2023-04-27T15:53:53.298Z,2.50
2023-04-27T15:56:21.923Z,2.45
2023-04-27T15:58:50.510Z,2.47
2023-04-27T16:01:21.791Z,2.60
2023-04-27T16:03:50.396Z,2.38
2023-04-27T16:06:18.605Z,2.13
2023-04-27T16:08:46.872Z,2.47
2023-04-27T16:11:16.361Z,2.10
2023-04-27T16:13:44.769Z,2.88
2023-04-27T16:16:14.291Z,2.30
2023-04-27T16:18:44.130Z,2.78
2023-04-27T16:21:12.432Z,2.47
2023-04-27T16:23:47.970Z,2.10
2023-04-27T16:26:16.453Z,2.40
2023-04-27T16:28:44.770Z,2.30
2023-04-27T16:31:14.193Z,2.13
2023-04-27T16:33:47.128Z,2.30
2023-04-27T16:36:17.355Z,3.20
2023-04-27T16:38:46.195Z,2.00
2023-04-27T16:41:14.847Z,2.33
2023-04-27T16:43:43.154Z,2.63
2023-04-27T16:46:11.993Z,2.60
2023-04-27T16:48:40.296Z,2.90
2023-04-27T16:51:10.874Z,2.25
2023-04-27T16:53:38.930Z,2.60
2023-04-27T16:56:07.745Z,3.10
2023-04-27T16:58:36.352Z,2.40
2023-04-27T17:01:05.044Z,3.08
2023-04-27T17:03:34.917Z,2.30
2023-04-27T17:06:03.311Z,2.50
2023-04-27T17:08:32.776Z,2.65
2023-04-27T17:11:00.839Z,3.38
2023-04-27T17:13:28.979Z,2.78
2023-04-27T17:15:57.181Z,2.60
2023-04-27T17:18:25.323Z,2.22
2023-04-27T17:20:53.485Z,3.80
2023-04-27T17:23:21.759Z,2.80
2023-04-27T17:25:51.273Z,3.00
2023-04-27T17:28:19.360Z,2.60
2023-04-27T17:30:47.498Z,2.30
2023-04-27T17:33:15.847Z,2.28
2023-04-27T17:35:44.987Z,2.80
2023-04-27T17:38:13.520Z,3.15
2023-04-27T17:40:41.745Z,2.65
2023-04-27T17:43:11.334Z,3.13
2023-04-27T17:45:39.713Z,6.13
2023-04-27T17:48:08.057Z,3.78
2023-04-27T17:50:37.625Z,3.38
2023-04-27T17:53:06.012Z,3.67
2023-04-27T17:55:34.158Z,3.30
2023-04-27T17:58:06.391Z,4.07
2023-04-27T18:00:36.160Z,4.22
2023-04-27T18:03:04.573Z,4.25
2023-04-27T18:05:33.336Z,8.52
2023-04-27T18:08:01.427Z,5.45
2023-04-27T18:10:29.873Z,4.72
2023-04-27T18:12:57.972Z,7.38
2023-04-27T18:15:26.236Z,4.80
2023-04-27T18:17:56.075Z,7.65
2023-04-27T18:20:25.609Z,4.88
2023-04-27T18:22:54.244Z,5.05
2023-04-27T18:25:22.757Z,6.00
2023-04-27T18:27:55.189Z,5.45
2023-04-27T18:30:24.882Z,6.20
2023-04-27T18:32:53.166Z,5.32
2023-04-27T18:35:22.802Z,5.57
2023-04-27T18:37:51.307Z,6.05
2023-04-27T18:40:21.856Z,4.97
2023-04-27T18:42:52.107Z,3.75
2023-04-27T18:45:20.548Z,3.25
2023-04-27T18:47:48.949Z,3.70
2023-04-27T18:50:17.671Z,3.65
2023-04-27T18:52:47.297Z,3.65
2023-04-27T18:55:17.860Z,4.50
2023-04-27T18:57:46.146Z,4.00
2023-04-27T19:00:15.351Z,3.63
2023-04-27T19:02:44.152Z,3.65
2023-04-27T19:05:13.705Z,4.40
2023-04-27T19:07:42.827Z,4.50
2023-04-27T19:10:12.879Z,4.70
2023-04-27T19:12:41.096Z,3.47
2023-04-27T19:15:10.069Z,3.72
2023-04-27T19:17:41.194Z,3.80
2023-04-27T19:20:10.878Z,5.43
2023-04-27T19:22:39.263Z,4.15
2023-04-27T19:25:10.107Z,4.40
2023-04-27T19:27:40.422Z,3.90
2023-04-27T19:30:10.155Z,3.75
2023-04-27T19:32:40.684Z,4.25
2023-04-27T19:35:12.938Z,4.13
2023-04-27T19:37:41.199Z,3.88
2023-04-27T19:40:11.346Z,5.13
2023-04-27T19:42:41.734Z,4.00
2023-04-27T19:45:10.841Z,3.90
2023-04-27T19:47:39.013Z,3.80
2023-04-27T19:50:08.301Z,4.28
2023-04-27T19:52:37.659Z,4.78
2023-04-27T19:55:06.175Z,4.05
2023-04-27T19:57:34.290Z,6.68
2023-04-27T20:00:05.039Z,4.70
2023-04-27T20:02:33.368Z,5.50
2023-04-27T20:05:02.099Z,4.68
2023-04-27T20:07:31.001Z,4.43
2023-04-27T20:09:59.660Z,4.30
2023-04-27T20:12:47.365Z,3.40
2023-04-27T20:15:18.021Z,3.80
2023-04-27T20:17:46.286Z,3.47
2023-04-27T20:20:14.424Z,4.40
2023-04-27T20:22:42.925Z,4.00
2023-04-27T20:25:14.075Z,4.10
2023-04-27T20:27:42.178Z,3.42
2023-04-27T20:30:11.053Z,3.40
2023-04-27T20:32:40.549Z,3.70
2023-04-27T20:35:11.623Z,4.07
2023-04-27T20:37:39.927Z,3.97
2023-04-27T20:40:13.397Z,3.75
2023-04-27T20:42:42.585Z,3.45
2023-04-27T20:45:11.922Z,4.00
2023-04-27T20:47:41.455Z,2.88
2023-04-27T20:50:09.792Z,4.25
2023-04-27T20:52:37.899Z,4.03
2023-04-27T20:55:06.440Z,4.10
2023-04-27T20:57:34.532Z,3.47
2023-04-27T21:00:02.644Z,3.35
2023-04-27T21:02:31.113Z,3.20
2023-04-27T21:05:00.762Z,3.10
2023-04-27T21:07:28.892Z,3.60
2023-04-27T21:09:56.953Z,3.85
2023-04-27T21:12:25.019Z,3.30
2023-04-27T21:14:53.225Z,3.40
2023-04-27T21:17:21.325Z,3.60
2023-04-27T21:19:49.418Z,3.28
2023-04-27T21:22:19.216Z,3.50
2023-04-27T21:24:47.668Z,3.65
2023-04-27T21:27:16.723Z,3.03
2023-04-27T21:29:45.043Z,3.20
2023-04-27T21:32:13.651Z,3.47
2023-04-27T21:34:41.771Z,2.90
2023-04-27T21:37:09.832Z,3.22
2023-04-27T21:39:39.257Z,3.03
2023-04-27T21:42:07.385Z,3.00
2023-04-27T21:44:35.452Z,3.08
2023-04-27T21:47:03.528Z,3.65
2023-04-27T21:49:31.654Z,3.00
2023-04-27T21:51:59.744Z,3.40
2023-04-27T21:54:27.813Z,3.17
2023-04-27T21:56:57.294Z,4.10
2023-04-27T21:59:25.371Z,3.55
2023-04-27T22:01:54.135Z,3.40
2023-04-27T22:04:22.911Z,3.83
2023-04-27T22:06:51.424Z,3.47
2023-04-27T22:09:19.569Z,3.30
2023-04-27T22:11:47.721Z,3.20
2023-04-27T22:14:17.327Z,3.35
2023-04-27T22:16:45.618Z,3.13
2023-04-27T22:19:13.732Z,4.18
2023-04-27T22:21:41.803Z,3.53
2023-04-27T22:24:09.906Z,3.55
2023-04-27T22:26:38.028Z,3.10
2023-04-27T22:29:06.081Z,3.95
2023-04-27T22:31:35.829Z,3.88
2023-04-27T22:34:04.405Z,3.70
2023-04-27T22:36:33.501Z,4.28
2023-04-27T22:39:01.584Z,4.43
2023-04-27T22:41:29.640Z,4.32
2023-04-27T22:43:57.656Z,4.53
2023-04-27T22:46:25.743Z,4.10
2023-04-27T22:48:55.244Z,4.20
2023-04-27T22:51:24.066Z,4.15
2023-04-27T22:53:52.092Z,4.03
2023-04-27T22:56:20.664Z,4.28
2023-04-27T22:58:48.714Z,4.18
2023-04-27T23:01:16.858Z,3.78
2023-04-27T23:03:45.242Z,4.32
2023-04-27T23:06:17.655Z,4.18
2023-04-27T23:08:47.158Z,4.10
2023-04-27T23:11:15.603Z,4.50
2023-04-27T23:13:44.623Z,4.20
2023-04-27T23:16:14.940Z,4.43
2023-04-27T23:18:43.064Z,4.65
2023-04-27T23:21:11.823Z,4.45
2023-04-27T23:23:41.306Z,4.75
2023-04-27T23:26:14.320Z,4.35
2023-04-27T23:28:42.408Z,4.47
2023-04-27T23:31:10.830Z,4.00
2023-04-27T23:33:39.041Z,5.10
2023-04-27T23:36:07.908Z,4.18
2023-04-27T23:38:35.999Z,4.78
2023-04-27T23:41:05.718Z,5.10
2023-04-27T23:43:34.520Z,5.13
2023-04-27T23:46:02.653Z,4.60
2023-04-27T23:48:30.743Z,4.63
2023-04-27T23:51:02.076Z,4.78
2023-04-27T23:53:30.127Z,4.05
2023-04-27T23:55:58.193Z,5.75
2023-04-27T23:58:27.842Z,5.75
